createdAt,value
2022-12-18T00:00:16.586Z,4.33
2022-12-18T00:03:06.912Z,5.30
2022-12-18T00:05:55.242Z,3.97
2022-12-18T00:08:46.201Z,5.47
2022-12-18T00:11:34.496Z,4.57
2022-12-18T00:14:22.550Z,4.60
2022-12-18T00:17:10.582Z,4.33
2022-12-18T00:19:58.677Z,4.97
2022-12-18T00:22:47.118Z,4.23
2022-12-18T00:25:36.992Z,4.03
2022-12-18T00:28:25.248Z,4.27
2022-12-18T00:31:16.010Z,3.80
2022-12-18T00:34:05.363Z,4.20
2022-12-18T00:36:53.916Z,4.20
2022-12-18T00:39:43.871Z,4.43
2022-12-18T00:42:50.742Z,4.80
2022-12-18T00:45:39.487Z,3.70
2022-12-18T00:48:27.992Z,4.70
2022-12-18T00:51:16.388Z,5.10
2022-12-18T00:54:04.599Z,7.17
2022-12-18T00:56:52.883Z,4.53
2022-12-18T00:59:42.401Z,4.23
2022-12-18T01:02:30.760Z,5.07
2022-12-18T01:05:19.057Z,3.93
2022-12-18T01:08:07.291Z,4.03
2022-12-18T01:10:55.674Z,4.93
2022-12-18T01:13:44.723Z,4.33
2022-12-18T01:16:34.472Z,4.23
2022-12-18T01:19:22.780Z,4.77
2022-12-18T01:22:11.216Z,3.73
2022-12-18T01:24:59.723Z,4.57
2022-12-18T01:27:48.037Z,3.87
2022-12-18T01:30:36.576Z,3.87
2022-12-18T01:33:26.315Z,4.10
2022-12-18T01:36:19.965Z,3.50
2022-12-18T01:39:10.336Z,4.60
2022-12-18T01:42:08.802Z,4.17
2022-12-18T01:45:05.066Z,4.10
2022-12-18T01:47:56.449Z,4.30
2022-12-18T01:50:46.308Z,3.60
2022-12-18T01:53:35.159Z,3.60
2022-12-18T01:56:24.795Z,3.93
2022-12-18T01:59:15.573Z,3.27
2022-12-18T02:02:05.578Z,3.70
2022-12-18T02:04:54.658Z,3.50
2022-12-18T02:07:59.276Z,3.17
2022-12-18T02:10:56.329Z,3.60
2022-12-18T02:13:53.584Z,2.97
2022-12-18T02:16:50.859Z,3.13
2022-12-18T02:19:55.624Z,3.20
2022-12-18T02:23:03.633Z,3.33
2022-12-18T02:26:17.331Z,3.00
2022-12-18T02:29:17.140Z,4.03
2022-12-18T02:32:12.044Z,3.17
2022-12-18T02:35:04.282Z,3.33
2022-12-18T02:37:56.470Z,3.03
2022-12-18T02:40:50.755Z,2.73
2022-12-18T02:43:52.670Z,2.70
2022-12-18T02:46:46.400Z,3.40
2022-12-18T02:49:47.491Z,2.90
2022-12-18T02:52:47.488Z,2.53
2022-12-18T02:55:52.913Z,2.63
2022-12-18T02:59:04.560Z,2.70
2022-12-18T03:02:09.972Z,4.77
2022-12-18T03:05:13.657Z,2.30
2022-12-18T03:08:11.532Z,2.60
2022-12-18T03:11:09.706Z,3.87
2022-12-18T03:14:03.177Z,3.33
2022-12-18T03:16:55.760Z,2.60
2022-12-18T03:19:48.178Z,3.00
2022-12-18T03:22:39.941Z,2.90
2022-12-18T03:25:31.362Z,3.13
2022-12-18T03:28:24.462Z,3.13
2022-12-18T03:31:26.472Z,3.27
2022-12-18T03:34:19.898Z,3.07
2022-12-18T03:37:10.300Z,2.70
2022-12-18T03:40:00.082Z,2.67
2022-12-18T03:42:54.637Z,2.63
2022-12-18T03:45:50.346Z,3.50
2022-12-18T03:48:48.831Z,3.43
2022-12-18T03:51:45.609Z,2.80
2022-12-18T03:54:43.540Z,3.47
2022-12-18T03:57:37.012Z,3.97
2022-12-18T04:00:27.883Z,3.90
2022-12-18T04:03:36.419Z,3.57
2022-12-18T04:06:29.535Z,3.03
2022-12-18T04:09:23.871Z,2.90
2022-12-18T04:12:16.387Z,3.10
2022-12-18T04:15:12.185Z,3.00
2022-12-18T04:18:02.247Z,2.80
2022-12-18T04:21:05.212Z,3.50
2022-12-18T04:23:59.216Z,2.90
2022-12-18T04:26:48.467Z,3.83
2022-12-18T04:29:39.484Z,2.70
2022-12-18T04:32:39.261Z,2.87
2022-12-18T04:35:29.014Z,3.43
2022-12-18T04:38:21.966Z,3.07
2022-12-18T04:41:19.505Z,3.57
2022-12-18T04:44:11.235Z,2.67
2022-12-18T04:47:00.810Z,4.70
2022-12-18T04:49:50.182Z,2.93
2022-12-18T04:52:39.312Z,3.47
2022-12-18T04:55:28.739Z,3.70
2022-12-18T04:58:19.271Z,3.07
2022-12-18T05:01:11.654Z,3.77
2022-12-18T05:04:05.868Z,3.70
2022-12-18T05:06:55.234Z,3.00
2022-12-18T05:09:44.792Z,3.13
2022-12-18T05:12:59.323Z,2.83
2022-12-18T05:16:01.284Z,3.97
2022-12-18T05:18:53.720Z,4.50
2022-12-18T05:21:47.959Z,3.40
2022-12-18T05:24:38.886Z,3.43
2022-12-18T05:27:28.034Z,3.03
2022-12-18T05:30:18.680Z,3.33
2022-12-18T05:33:12.659Z,4.40
2022-12-18T05:36:06.122Z,4.20
2022-12-18T05:38:55.295Z,3.63
2022-12-18T05:41:44.355Z,4.00
2022-12-18T05:44:35.827Z,3.77
2022-12-18T05:47:25.504Z,5.20
2022-12-18T05:50:16.500Z,4.10
2022-12-18T05:53:06.958Z,3.67
2022-12-18T05:55:56.174Z,3.90
2022-12-18T05:58:54.439Z,3.83
2022-12-18T06:01:44.439Z,3.67
2022-12-18T06:04:33.202Z,8.63
2022-12-18T06:07:23.754Z,6.17
2022-12-18T06:10:12.991Z,4.27
2022-12-18T06:13:01.645Z,4.13
2022-12-18T06:15:50.170Z,4.37
2022-12-18T06:18:38.601Z,4.23
2022-12-18T06:21:26.991Z,3.97
2022-12-18T06:24:17.713Z,4.10
2022-12-18T06:27:06.691Z,4.80
2022-12-18T06:29:59.721Z,4.10
2022-12-18T06:32:56.682Z,11.30
2022-12-18T06:35:49.366Z,4.07
2022-12-18T06:38:41.132Z,3.93
2022-12-18T06:41:31.685Z,4.27
2022-12-18T06:44:20.953Z,4.60
2022-12-18T06:47:10.037Z,5.70
2022-12-18T06:49:58.912Z,3.80
2022-12-18T06:52:47.445Z,3.63
2022-12-18T06:55:36.377Z,4.23
2022-12-18T06:58:26.887Z,3.90
2022-12-18T07:01:16.488Z,4.50
2022-12-18T07:03:45.601Z,4.03
2022-12-18T07:06:19.836Z,5.63
2022-12-18T07:08:49.089Z,4.63
2022-12-18T07:11:18.677Z,4.10
2022-12-18T07:13:48.790Z,4.63
2022-12-18T07:16:24.662Z,4.70
2022-12-18T07:18:54.520Z,4.53
2022-12-18T07:21:25.391Z,4.07
2022-12-18T07:23:54.164Z,4.30
2022-12-18T07:26:24.078Z,4.53
2022-12-18T07:28:58.949Z,4.70
2022-12-18T07:31:29.065Z,4.63
2022-12-18T07:33:58.471Z,3.80
2022-12-18T07:36:28.338Z,4.60
2022-12-18T07:38:58.387Z,4.40
2022-12-18T07:41:27.651Z,4.77
2022-12-18T07:44:01.790Z,4.23
2022-12-18T07:46:32.448Z,4.67
2022-12-18T07:49:14.531Z,3.63
2022-12-18T07:51:50.708Z,3.93
2022-12-18T07:54:28.200Z,3.67
2022-12-18T07:57:33.751Z,4.03
2022-12-18T08:00:09.146Z,4.43
2022-12-18T08:02:45.054Z,4.13
2022-12-18T08:05:14.845Z,3.90
2022-12-18T08:07:46.509Z,3.83
2022-12-18T08:10:16.532Z,5.07
2022-12-18T08:12:45.783Z,3.87
2022-12-18T08:15:20.662Z,4.53
2022-12-18T08:17:55.135Z,4.13
2022-12-18T08:20:33.453Z,4.57
2022-12-18T08:23:03.722Z,4.73
2022-12-18T08:25:33.993Z,4.33
2022-12-18T08:28:03.240Z,4.00
2022-12-18T08:30:39.049Z,4.23
2022-12-18T08:33:09.520Z,4.30
2022-12-18T08:35:45.988Z,4.03
2022-12-18T08:38:17.797Z,4.63
2022-12-18T08:40:48.177Z,4.63
2022-12-18T08:43:46.296Z,5.80
2022-12-18T08:46:24.322Z,4.00
2022-12-18T08:48:59.977Z,5.87
2022-12-18T08:51:45.841Z,4.43
2022-12-18T08:54:33.011Z,4.03
2022-12-18T08:57:05.774Z,4.50
2022-12-18T08:59:37.293Z,5.13
2022-12-18T09:02:17.027Z,4.20
2022-12-18T09:04:53.809Z,3.93
2022-12-18T09:07:28.798Z,4.87
2022-12-18T09:09:57.382Z,4.70
2022-12-18T09:12:25.911Z,4.27
2022-12-18T09:14:54.216Z,5.10
2022-12-18T09:17:24.607Z,4.50
2022-12-18T09:19:53.197Z,4.73
2022-12-18T09:22:21.574Z,5.27
2022-12-18T09:24:50.846Z,4.30
2022-12-18T09:27:19.102Z,5.37
2022-12-18T09:29:47.069Z,5.20
2022-12-18T09:32:21.999Z,10.07
2022-12-18T09:34:51.799Z,5.67
2022-12-18T09:37:20.354Z,6.50
2022-12-18T09:39:48.264Z,6.67
2022-12-18T09:42:22.015Z,6.10
2022-12-18T09:44:52.955Z,14.70
2022-12-18T09:47:26.014Z,6.87
2022-12-18T09:49:59.429Z,6.47
2022-12-18T09:52:34.628Z,6.70
2022-12-18T09:55:08.626Z,6.37
2022-12-18T09:57:42.743Z,6.00
2022-12-18T10:00:19.899Z,6.77
2022-12-18T10:02:49.131Z,5.37
2022-12-18T10:05:22.715Z,6.47
2022-12-18T10:08:01.763Z,7.43
2022-12-18T10:10:39.440Z,8.20
2022-12-18T10:13:17.466Z,7.50
2022-12-18T10:15:56.985Z,7.17
2022-12-18T10:18:40.305Z,7.50
2022-12-18T10:21:16.903Z,9.27
2022-12-18T10:23:53.635Z,7.30
2022-12-18T10:26:22.821Z,7.03
2022-12-18T10:28:51.835Z,9.93
2022-12-18T10:31:24.666Z,9.60
2022-12-18T10:33:55.638Z,7.27
2022-12-18T10:36:26.783Z,8.37
2022-12-18T10:38:55.096Z,8.43
2022-12-18T10:41:29.516Z,9.73
2022-12-18T10:44:14.204Z,9.97
2022-12-18T10:46:43.334Z,8.50
2022-12-18T10:49:23.337Z,9.60
2022-12-18T10:52:05.705Z,8.93
2022-12-18T10:54:35.879Z,11.00
2022-12-18T10:57:17.044Z,9.93
2022-12-18T10:59:53.697Z,12.67
2022-12-18T11:02:30.499Z,10.77
2022-12-18T11:05:01.425Z,8.00
2022-12-18T11:07:50.045Z,10.17
2022-12-18T11:10:18.839Z,8.67
2022-12-18T11:12:46.986Z,8.77
2022-12-18T11:15:21.736Z,9.03
2022-12-18T11:17:52.645Z,16.47
2022-12-18T11:20:32.618Z,9.63
2022-12-18T11:23:04.465Z,9.40
2022-12-18T11:25:35.633Z,10.93
2022-12-18T11:28:07.725Z,12.10
2022-12-18T11:30:36.767Z,13.17
2022-12-18T11:33:08.377Z,9.73
2022-12-18T11:35:51.508Z,10.67
2022-12-18T11:38:26.351Z,11.23
2022-12-18T11:41:00.523Z,11.37
2022-12-18T11:43:32.001Z,11.67
2022-12-18T11:46:06.859Z,8.33
2022-12-18T11:48:40.537Z,10.80
2022-12-18T11:51:16.848Z,10.57
2022-12-18T11:53:49.162Z,10.43
2022-12-18T11:56:32.024Z,10.33
2022-12-18T11:59:11.234Z,15.13
2022-12-18T12:01:50.849Z,9.40
2022-12-18T12:04:41.155Z,12.30
2022-12-18T12:07:22.050Z,11.80
2022-12-18T12:10:01.286Z,11.20
2022-12-18T12:12:49.038Z,13.57
2022-12-18T12:15:29.412Z,13.07
2022-12-18T12:18:11.319Z,11.50
2022-12-18T12:20:49.332Z,11.87
2022-12-18T12:23:27.891Z,13.60
2022-12-18T12:26:06.084Z,13.97
2022-12-18T12:28:53.062Z,13.83
2022-12-18T12:31:31.253Z,13.50
2022-12-18T12:34:09.333Z,13.40
2022-12-18T12:36:47.980Z,11.73
2022-12-18T12:39:19.677Z,14.70
2022-12-18T12:42:06.727Z,18.97
2022-12-18T12:44:43.236Z,15.23
2022-12-18T12:47:17.341Z,15.43
2022-12-18T12:49:51.611Z,15.00
2022-12-18T12:52:29.552Z,15.40
2022-12-18T12:54:58.636Z,16.00
2022-12-18T12:57:35.423Z,15.73
2022-12-18T13:00:10.222Z,17.37
2022-12-18T13:02:44.640Z,20.80
2022-12-18T13:05:22.233Z,18.07
2022-12-18T13:07:54.688Z,17.37
2022-12-18T13:10:36.152Z,15.57
2022-12-18T13:13:09.036Z,14.20
2022-12-18T13:15:41.098Z,16.90
2022-12-18T13:18:16.686Z,15.60
2022-12-18T13:20:53.667Z,13.77
2022-12-18T13:23:37.213Z,15.53
2022-12-18T13:26:30.676Z,16.93
2022-12-18T13:29:02.805Z,13.67
2022-12-18T13:32:02.307Z,13.87
2022-12-18T13:34:32.221Z,14.40
2022-12-18T13:37:34.007Z,14.63
2022-12-18T13:40:02.131Z,13.90
2022-12-18T13:43:05.805Z,15.97
2022-12-18T13:45:42.581Z,14.77
2022-12-18T13:48:19.307Z,15.53
2022-12-18T13:50:54.367Z,16.90
2022-12-18T13:53:27.868Z,17.27
2022-12-18T13:55:56.011Z,16.43
2022-12-18T13:58:24.259Z,17.43
2022-12-18T14:00:53.982Z,16.90
2022-12-18T14:03:24.617Z,17.67
2022-12-18T14:05:58.032Z,18.20
2022-12-18T14:08:29.443Z,15.63
2022-12-18T14:10:58.416Z,15.43
2022-12-18T14:13:30.074Z,16.97
2022-12-18T14:16:03.787Z,18.37
2022-12-18T14:18:40.645Z,16.73
2022-12-18T14:21:17.646Z,17.40
2022-12-18T14:23:46.292Z,17.67
2022-12-18T14:26:28.087Z,20.83
2022-12-18T14:28:56.489Z,16.77
2022-12-18T14:31:28.047Z,20.10
2022-12-18T14:33:56.200Z,18.73
2022-12-18T14:36:26.648Z,18.97
2022-12-18T14:38:55.759Z,19.73
2022-12-18T14:41:24.456Z,17.73
2022-12-18T14:43:54.771Z,16.97
2022-12-18T14:46:37.644Z,20.37
2022-12-18T14:49:17.657Z,19.13
2022-12-18T14:51:50.525Z,18.03
2022-12-18T14:54:19.928Z,18.30
2022-12-18T14:56:50.505Z,16.10
2022-12-18T14:59:24.469Z,16.97
2022-12-18T15:02:01.354Z,17.10
2022-12-18T15:04:32.861Z,17.90
2022-12-18T15:07:13.355Z,15.50
2022-12-18T15:09:43.709Z,15.37
2022-12-18T15:12:34.069Z,17.70
2022-12-18T15:15:01.797Z,13.53
2022-12-18T15:17:31.059Z,16.47
2022-12-18T15:20:03.160Z,16.33
2022-12-18T15:22:32.726Z,16.13
2022-12-18T15:25:01.403Z,16.40
2022-12-18T15:27:32.923Z,16.27
2022-12-18T15:30:19.158Z,14.80
2022-12-18T15:32:49.764Z,13.03
2022-12-18T15:35:20.671Z,15.60
2022-12-18T15:37:49.400Z,13.87
2022-12-18T15:40:19.267Z,12.93
2022-12-18T15:43:06.701Z,13.03
2022-12-18T15:45:34.645Z,12.90
2022-12-18T15:48:03.894Z,12.20
2022-12-18T15:50:31.674Z,13.70
2022-12-18T15:52:59.880Z,11.67
2022-12-18T15:55:45.570Z,10.67
2022-12-18T15:58:13.307Z,11.67
2022-12-18T16:00:42.923Z,11.27
2022-12-18T16:03:12.326Z,12.43
2022-12-18T16:05:40.219Z,10.93
2022-12-18T16:08:07.833Z,11.87
2022-12-18T16:10:36.780Z,11.00
2022-12-18T16:13:04.483Z,10.77
2022-12-18T16:15:32.164Z,12.77
2022-12-18T16:17:59.811Z,12.47
2022-12-18T16:20:28.872Z,13.17
2022-12-18T16:22:56.796Z,13.80
2022-12-18T16:25:26.383Z,13.33
2022-12-18T16:27:56.030Z,15.20
2022-12-18T16:30:25.119Z,15.13
2022-12-18T16:32:53.790Z,15.80
2022-12-18T16:35:21.674Z,13.57
2022-12-18T16:37:50.775Z,12.90
2022-12-18T16:40:19.513Z,12.97
2022-12-18T16:42:48.131Z,15.77
2022-12-18T16:45:18.189Z,15.93
2022-12-18T16:47:46.208Z,13.63
2022-12-18T16:50:14.405Z,14.10
2022-12-18T16:52:42.283Z,15.20
2022-12-18T16:55:11.664Z,13.70
2022-12-18T16:57:39.408Z,17.60
2022-12-18T17:00:08.709Z,16.37
2022-12-18T17:02:37.571Z,13.63
2022-12-18T17:05:06.253Z,16.30
2022-12-18T17:07:34.009Z,14.83
2022-12-18T17:10:03.050Z,13.27
2022-12-18T17:12:32.098Z,18.03
2022-12-18T17:14:59.769Z,14.33
2022-12-18T17:17:27.411Z,13.83
2022-12-18T17:19:55.301Z,14.07
2022-12-18T17:22:24.006Z,15.77
2022-12-18T17:24:51.959Z,16.30
2022-12-18T17:27:19.777Z,14.87
2022-12-18T17:29:49.242Z,13.17
2022-12-18T17:32:17.524Z,17.07
2022-12-18T17:34:45.436Z,16.57
2022-12-18T17:37:13.160Z,16.93
2022-12-18T17:39:41.986Z,18.80
2022-12-18T17:42:14.943Z,17.43
2022-12-18T17:44:44.062Z,17.60
2022-12-18T17:47:13.750Z,17.37
2022-12-18T17:49:41.609Z,17.97
2022-12-18T17:52:09.465Z,20.33
2022-12-18T17:54:39.673Z,14.50
2022-12-18T17:57:07.640Z,18.33
2022-12-18T17:59:35.259Z,17.57
2022-12-18T18:02:03.267Z,19.27
2022-12-18T18:04:32.550Z,17.33
2022-12-18T18:07:00.328Z,16.93
2022-12-18T18:09:28.283Z,15.17
2022-12-18T18:12:15.074Z,14.97
2022-12-18T18:14:42.883Z,17.00
2022-12-18T18:17:11.200Z,19.73
2022-12-18T18:19:41.955Z,17.40
2022-12-18T18:22:11.916Z,15.17
2022-12-18T18:24:39.686Z,18.00
2022-12-18T18:27:07.317Z,16.77
2022-12-18T18:29:35.182Z,17.03
2022-12-18T18:32:02.942Z,15.63
2022-12-18T18:34:32.278Z,18.13
2022-12-18T18:37:02.973Z,15.70
2022-12-18T18:39:31.221Z,15.27
2022-12-18T18:42:00.724Z,17.83
2022-12-18T18:44:30.776Z,15.70
2022-12-18T18:46:59.276Z,19.70
2022-12-18T18:49:28.292Z,17.37
2022-12-18T18:51:56.994Z,15.27
2022-12-18T18:54:26.141Z,17.57
2022-12-18T18:59:41.554Z,14.43
2022-12-18T19:02:12.440Z,16.87
2022-12-18T19:04:44.718Z,14.00
2022-12-18T19:07:15.506Z,16.23
2022-12-18T19:10:04.807Z,13.80
2022-12-18T19:12:51.710Z,14.70
2022-12-18T19:15:19.416Z,14.57
2022-12-18T19:17:47.962Z,16.70
2022-12-18T19:20:16.327Z,15.83
2022-12-18T19:22:46.103Z,17.17
2022-12-18T19:25:38.097Z,18.27
2022-12-18T19:28:21.262Z,16.60
2022-12-18T19:30:57.293Z,15.70
2022-12-18T19:33:43.695Z,19.83
2022-12-18T19:36:14.631Z,16.53
2022-12-18T19:38:45.004Z,16.80
2022-12-18T19:41:15.420Z,17.37
2022-12-18T19:43:43.773Z,18.50
2022-12-18T19:46:14.043Z,18.50
2022-12-18T19:48:42.601Z,16.77
2022-12-18T19:51:14.764Z,16.70
2022-12-18T19:53:42.511Z,16.43
2022-12-18T19:56:12.575Z,17.03
2022-12-18T19:58:41.905Z,15.90
2022-12-18T20:01:09.972Z,16.77
2022-12-18T20:03:40.400Z,19.63
2022-12-18T20:06:09.714Z,15.83
2022-12-18T20:08:37.467Z,17.77
2022-12-18T20:11:05.609Z,17.10
2022-12-18T20:13:34.119Z,14.67
2022-12-18T20:16:03.387Z,19.80
2022-12-18T20:18:31.193Z,18.23
2022-12-18T20:20:58.959Z,17.53
2022-12-18T20:23:28.776Z,17.87
2022-12-18T20:25:58.771Z,18.83
2022-12-18T20:28:26.591Z,16.70
2022-12-18T20:31:00.309Z,14.87
2022-12-18T20:33:29.702Z,16.50
2022-12-18T20:36:02.704Z,16.57
2022-12-18T20:38:31.394Z,16.93
2022-12-18T20:41:02.235Z,16.33
2022-12-18T20:43:30.006Z,17.07
2022-12-18T20:46:03.039Z,16.17
2022-12-18T20:48:33.319Z,17.03
2022-12-18T20:51:03.841Z,16.27
2022-12-18T20:53:32.083Z,17.97
2022-12-18T20:55:59.953Z,16.47
2022-12-18T20:58:27.751Z,17.10
2022-12-18T21:01:03.782Z,16.43
2022-12-18T21:03:52.620Z,12.50
2022-12-18T21:06:42.019Z,13.83
2022-12-18T21:09:38.289Z,12.80
2022-12-18T21:12:40.255Z,15.33
2022-12-18T21:15:32.137Z,13.33
2022-12-18T21:18:20.136Z,15.43
2022-12-18T21:21:09.439Z,15.50
2022-12-18T21:23:57.644Z,18.83
2022-12-18T21:26:46.980Z,16.10
2022-12-18T21:29:35.119Z,15.40
2022-12-18T21:32:23.649Z,15.27
2022-12-18T21:35:13.218Z,16.53
2022-12-18T21:38:03.867Z,15.40
2022-12-18T21:40:53.769Z,15.00
2022-12-18T21:43:59.529Z,16.53
2022-12-18T21:46:55.641Z,14.20
2022-12-18T21:49:46.240Z,14.60
2022-12-18T21:52:34.200Z,14.43
2022-12-18T21:55:23.490Z,15.50
2022-12-18T21:58:11.498Z,16.57
2022-12-18T22:00:59.449Z,17.80
2022-12-18T22:03:48.043Z,17.30
2022-12-18T22:06:36.136Z,15.93
2022-12-18T22:09:26.317Z,16.23
2022-12-18T22:12:34.997Z,17.50
2022-12-18T22:15:23.111Z,14.90
2022-12-18T22:18:14.196Z,13.07
2022-12-18T22:21:02.636Z,17.80
2022-12-18T22:23:54.201Z,16.93
2022-12-18T22:26:42.822Z,18.03
2022-12-18T22:29:49.705Z,17.67
2022-12-18T22:32:37.640Z,16.90
2022-12-18T22:35:26.005Z,19.73
2022-12-18T22:38:13.951Z,17.90
2022-12-18T22:41:04.578Z,15.87
2022-12-18T22:43:52.503Z,18.90
2022-12-18T22:46:44.999Z,18.83
2022-12-18T22:49:35.185Z,18.80
2022-12-18T22:52:25.018Z,20.10
2022-12-18T22:55:13.255Z,19.33
2022-12-18T22:58:01.272Z,18.67
2022-12-18T23:00:49.257Z,18.83
2022-12-18T23:03:38.559Z,22.03
2022-12-18T23:06:28.533Z,19.43
2022-12-18T23:09:18.234Z,18.37
2022-12-18T23:12:06.973Z,19.20
2022-12-18T23:14:55.129Z,19.77
2022-12-18T23:17:43.093Z,18.37
2022-12-18T23:20:32.372Z,18.43
2022-12-18T23:23:20.402Z,22.30
2022-12-18T23:26:11.677Z,20.97
2022-12-18T23:29:01.285Z,21.17
2022-12-18T23:31:49.301Z,18.07
2022-12-18T23:34:37.275Z,18.93
2022-12-18T23:37:57.137Z,20.87
2022-12-18T23:40:34.476Z,18.60
2022-12-18T23:43:22.427Z,20.33
2022-12-18T23:46:14.010Z,22.27
2022-12-18T23:49:03.954Z,20.67
2022-12-18T23:51:55.006Z,19.40
2022-12-18T23:54:44.260Z,19.17
2022-12-18T23:57:32.191Z,24.03
